createdAt,value
2023-03-30T00:00:15.115Z,-23611.72
2023-03-30T00:02:23.053Z,-23610.91
2023-03-30T00:04:27.214Z,-23609.97
2023-03-30T00:06:30.073Z,-23612.81
2023-03-30T00:08:33.410Z,-23611.53
2023-03-30T00:10:38.561Z,-23612.03
2023-03-30T00:12:43.442Z,-23614.06
2023-03-30T00:14:46.090Z,-23617.38
2023-03-30T00:16:48.794Z,-23620.72
2023-03-30T00:18:53.105Z,-23621.81
2023-03-30T00:20:55.732Z,-23621.03
2023-03-30T00:22:58.330Z,-23622.28
2023-03-30T00:25:01.050Z,-23620.41
2023-03-30T00:27:03.898Z,-23623.22
2023-03-30T00:29:06.684Z,-23621.66
2023-03-30T00:31:10.719Z,-23618.50
2023-03-30T00:33:13.393Z,-23617.88
2023-03-30T00:35:17.416Z,-23617.38
2023-03-30T00:37:20.522Z,-23616.13
2023-03-30T00:39:26.426Z,-23618.19
2023-03-30T00:41:29.131Z,-23617.88
2023-03-30T00:43:33.311Z,-23619.13
2023-03-30T00:45:37.049Z,-23621.81
2023-03-30T00:47:43.115Z,-23625.59
2023-03-30T00:49:46.036Z,-23627.19
2023-03-30T00:51:50.760Z,-23626.06
2023-03-30T00:53:58.269Z,-23622.59
2023-03-30T00:56:04.198Z,-23619.91
2023-03-30T00:58:09.793Z,-23618.03
2023-03-30T01:00:14.645Z,-23616.75
2023-03-30T01:02:18.790Z,-23615.34
2023-03-30T01:04:22.016Z,-23613.44
2023-03-30T01:06:30.002Z,-23611.22
2023-03-30T01:08:35.494Z,-23612.50
2023-03-30T01:10:38.094Z,-23611.22
2023-03-30T01:12:41.028Z,-23609.97
2023-03-30T01:14:43.592Z,-23610.91
2023-03-30T01:16:55.890Z,-23610.59
2023-03-30T01:19:16.350Z,-23608.38
2023-03-30T01:21:42.908Z,-23606.34
2023-03-30T01:24:30.436Z,-23607.91
2023-03-30T01:26:53.411Z,-23609.50
2023-03-30T01:29:00.468Z,-23611.38
2023-03-30T01:31:30.269Z,-23610.91
2023-03-30T01:34:02.688Z,-23610.59
2023-03-30T01:36:41.751Z,-23610.59
2023-03-30T01:39:13.109Z,-23607.44
2023-03-30T01:41:24.353Z,-23606.19
2023-03-30T01:43:36.006Z,-23603.97
2023-03-30T01:45:45.487Z,-23598.13
2023-03-30T01:47:57.080Z,-23599.84
2023-03-30T01:50:04.415Z,-23597.34
2023-03-30T01:52:15.153Z,-23594.81
2023-03-30T01:54:23.876Z,-23593.22
2023-03-30T01:56:29.819Z,-23589.91
2023-03-30T01:58:37.540Z,-23587.53
2023-03-30T02:00:43.552Z,-23588.97
2023-03-30T02:02:50.429Z,-23591.97
2023-03-30T02:04:54.678Z,-23590.06
2023-03-30T02:07:02.748Z,-23589.59
2023-03-30T02:09:07.323Z,-23586.59
2023-03-30T02:11:11.686Z,-23585.16
2023-03-30T02:13:16.468Z,-23582.63
2023-03-30T02:15:20.642Z,-23583.13
2023-03-30T02:17:24.722Z,-23582.16
2023-03-30T02:19:27.857Z,-23580.59
2023-03-30T02:21:30.520Z,-23580.28
2023-03-30T02:23:38.241Z,-23577.91
2023-03-30T02:25:40.949Z,-23577.09
2023-03-30T02:27:45.031Z,-23578.69
2023-03-30T02:29:47.643Z,-23577.41
2023-03-30T02:31:54.238Z,-23578.69
2023-03-30T02:34:09.991Z,-23578.69
2023-03-30T02:36:28.954Z,-23579.63
2023-03-30T02:38:45.746Z,-23579.00
2023-03-30T02:40:58.933Z,-23577.56
2023-03-30T02:43:28.752Z,-23578.38
2023-03-30T02:45:46.213Z,-23578.22
2023-03-30T02:48:01.436Z,-23576.94
2023-03-30T02:50:10.742Z,-23576.78
2023-03-30T02:52:24.054Z,-23579.47
2023-03-30T02:54:35.235Z,-23576.78
2023-03-30T02:56:45.665Z,-23573.63
2023-03-30T02:58:54.848Z,-23573.63
2023-03-30T03:01:03.492Z,-23572.03
2023-03-30T03:03:12.413Z,-23568.56
2023-03-30T03:05:16.767Z,-23564.47
2023-03-30T03:07:21.443Z,-23561.28
2023-03-30T03:09:26.028Z,-23561.78
2023-03-30T03:11:28.647Z,-23558.28
2023-03-30T03:13:32.039Z,-23551.81
2023-03-30T03:15:37.883Z,-23552.28
2023-03-30T03:17:40.557Z,-23552.75
2023-03-30T03:19:43.274Z,-23552.13
2023-03-30T03:21:45.965Z,-23551.47
2023-03-30T03:23:48.614Z,-23551.47
2023-03-30T03:25:51.448Z,-23551.47
2023-03-30T03:27:54.063Z,-23550.22
2023-03-30T03:29:56.836Z,-23548.31
2023-03-30T03:32:01.193Z,-23547.69
2023-03-30T03:34:03.863Z,-23550.06
2023-03-30T03:36:07.395Z,-23548.97
2023-03-30T03:38:10.027Z,-23549.44
2023-03-30T03:40:12.995Z,-23548.31
2023-03-30T03:42:15.649Z,-23548.16
2023-03-30T03:44:18.289Z,-23547.84
2023-03-30T03:46:20.953Z,-23548.16
2023-03-30T03:48:26.161Z,-23546.75
2023-03-30T03:50:28.798Z,-23545.94
2023-03-30T03:52:32.060Z,-23546.59
2023-03-30T03:54:34.804Z,-23546.09
2023-03-30T03:56:37.597Z,-23545.63
2023-03-30T03:58:40.307Z,-23545.16
2023-03-30T04:00:43.288Z,-23546.09
2023-03-30T04:02:46.313Z,-23546.25
2023-03-30T04:04:51.515Z,-23546.75
2023-03-30T04:06:54.160Z,-23545.00
2023-03-30T04:08:56.815Z,-23547.69
2023-03-30T04:11:07.917Z,-23545.31
2023-03-30T04:13:10.814Z,-23544.53
2023-03-30T04:15:13.471Z,-23543.56
2023-03-30T04:17:16.122Z,-23545.16
2023-03-30T04:19:18.975Z,-23547.22
2023-03-30T04:21:23.605Z,-23548.00
2023-03-30T04:23:31.041Z,-23547.53
2023-03-30T04:25:33.730Z,-23548.63
2023-03-30T04:27:37.626Z,-23547.69
2023-03-30T04:29:40.838Z,-23549.59
2023-03-30T04:31:46.864Z,-23552.44
2023-03-30T04:33:53.042Z,-23551.81
2023-03-30T04:35:55.779Z,-23558.59
2023-03-30T04:38:00.484Z,-23555.44
2023-03-30T04:40:08.010Z,-23556.72
2023-03-30T04:42:14.281Z,-23556.06
2023-03-30T04:44:20.358Z,-23558.13
2023-03-30T04:46:23.079Z,-23557.81
2023-03-30T04:48:25.746Z,-23555.13
2023-03-30T04:50:28.414Z,-23554.97
2023-03-30T04:52:31.074Z,-23553.38
2023-03-30T04:54:35.086Z,-23552.91
2023-03-30T04:56:37.684Z,-23552.59
2023-03-30T04:58:40.591Z,-23551.97
2023-03-30T05:00:43.458Z,-23553.38
2023-03-30T05:02:46.151Z,-23549.44
2023-03-30T05:04:48.902Z,-23546.44
2023-03-30T05:06:51.680Z,-23545.16
2023-03-30T05:08:54.363Z,-23543.88
2023-03-30T05:11:01.118Z,-23543.75
2023-03-30T05:13:03.952Z,-23547.38
2023-03-30T05:15:07.455Z,-23551.00
2023-03-30T05:17:10.619Z,-23549.13
2023-03-30T05:19:13.310Z,-23553.69
2023-03-30T05:21:16.182Z,-23551.81
2023-03-30T05:23:18.823Z,-23546.09
2023-03-30T05:25:21.606Z,-23545.78
2023-03-30T05:27:25.596Z,-23547.06
2023-03-30T05:29:28.385Z,-23548.31
2023-03-30T05:31:31.063Z,-23549.75
2023-03-30T05:33:33.727Z,-23554.97
2023-03-30T05:35:37.192Z,-23557.19
2023-03-30T05:37:39.850Z,-23556.88
2023-03-30T05:39:42.507Z,-23550.53
2023-03-30T05:41:45.317Z,-23551.81
2023-03-30T05:43:49.245Z,-23553.84
2023-03-30T05:45:51.925Z,-23552.75
2023-03-30T05:47:55.149Z,-23556.53
2023-03-30T05:49:57.803Z,-23553.84
2023-03-30T05:52:01.124Z,-23551.47
2023-03-30T05:54:04.437Z,-23552.28
2023-03-30T05:56:08.042Z,-23554.66
2023-03-30T05:58:11.705Z,-23554.03
2023-03-30T06:00:16.958Z,-23557.19
2023-03-30T06:02:19.726Z,-23556.72
2023-03-30T06:04:22.527Z,-23556.22
2023-03-30T06:06:25.221Z,-23553.84
2023-03-30T06:08:27.961Z,-23551.16
2023-03-30T06:10:30.582Z,-23546.75
2023-03-30T06:12:33.504Z,-23544.53
2023-03-30T06:14:36.254Z,-23543.56
2023-03-30T06:16:40.327Z,-23544.22
2023-03-30T06:18:43.000Z,-23549.91
2023-03-30T06:20:48.757Z,-23549.59
2023-03-30T06:22:52.335Z,-23549.91
2023-03-30T06:24:54.994Z,-23551.34
2023-03-30T06:26:58.318Z,-23553.69
2023-03-30T06:29:01.032Z,-23559.72
2023-03-30T06:31:09.051Z,-23560.81
2023-03-30T06:33:13.102Z,-23561.59
2023-03-30T06:35:16.793Z,-23563.97
2023-03-30T06:37:19.715Z,-23566.97
2023-03-30T06:39:22.370Z,-23566.19
2023-03-30T06:41:25.036Z,-23568.88
2023-03-30T06:43:27.786Z,-23574.41
2023-03-30T06:45:30.433Z,-23577.09
2023-03-30T06:47:33.135Z,-23576.16
2023-03-30T06:49:37.422Z,-23579.00
2023-03-30T06:51:40.303Z,-23579.31
2023-03-30T06:53:42.946Z,-23581.84
2023-03-30T06:55:46.520Z,-23583.91
2023-03-30T06:57:49.252Z,-23584.06
2023-03-30T06:59:52.049Z,-23587.53
2023-03-30T07:01:54.681Z,-23584.69
2023-03-30T07:03:57.587Z,-23583.59
2023-03-30T07:06:01.781Z,-23582.16
2023-03-30T07:08:05.933Z,-23580.59
2023-03-30T07:10:11.038Z,-23582.63
2023-03-30T07:12:13.745Z,-23578.06
2023-03-30T07:14:16.390Z,-23573.00
2023-03-30T07:16:19.095Z,-23576.16
2023-03-30T07:18:22.228Z,-23570.94
2023-03-30T07:20:24.866Z,-23571.41
2023-03-30T07:22:29.214Z,-23569.50
2023-03-30T07:24:33.651Z,-23568.25
2023-03-30T07:26:36.512Z,-23567.31
2023-03-30T07:28:40.352Z,-23559.72
2023-03-30T07:30:43.469Z,-23557.19
2023-03-30T07:32:46.229Z,-23556.88
2023-03-30T07:34:48.957Z,-23557.81
2023-03-30T07:36:51.578Z,-23558.28
2023-03-30T07:38:55.834Z,-23555.44
2023-03-30T07:40:58.485Z,-23561.28
2023-03-30T07:43:01.590Z,-23557.50
2023-03-30T07:45:04.612Z,-23550.06
2023-03-30T07:47:07.813Z,-23548.78
2023-03-30T07:49:10.633Z,-23548.00
2023-03-30T07:51:14.407Z,-23546.44
2023-03-30T07:53:17.138Z,-23546.75
2023-03-30T07:55:21.168Z,-22488.63
2023-03-30T07:57:24.018Z,-21725.00
2023-03-30T07:59:27.103Z,-11260.66
2023-03-30T08:01:29.743Z,-1211.03
2023-03-30T08:03:33.044Z,6264.25
2023-03-30T08:05:36.233Z,414.53
2023-03-30T08:07:38.916Z,-18055.00
2023-03-30T08:09:41.701Z,-16439.53
2023-03-30T08:11:46.193Z,-13203.81
2023-03-30T08:13:49.273Z,-20800.31
2023-03-30T08:15:52.649Z,-23544.53
2023-03-30T08:17:55.379Z,-12878.72
2023-03-30T08:19:58.082Z,-4455.25
2023-03-30T08:22:01.775Z,3987.59
2023-03-30T08:24:04.856Z,13424.75
2023-03-30T08:26:07.795Z,28109.88
2023-03-30T08:28:11.968Z,45149.78
2023-03-30T08:30:16.347Z,41555.91
2023-03-30T08:32:18.964Z,41541.00
2023-03-30T08:34:21.667Z,42850.31
2023-03-30T08:36:24.392Z,39904.22
2023-03-30T08:38:27.246Z,45821.81
2023-03-30T08:40:29.981Z,43195.19
2023-03-30T08:43:00.414Z,31069.34
2023-03-30T08:45:05.606Z,22888.78
2023-03-30T08:47:13.733Z,23861.84
2023-03-30T08:49:20.328Z,28110.41
2023-03-30T08:51:24.858Z,35313.78
2023-03-30T08:53:29.512Z,32371.44
2023-03-30T08:55:36.312Z,28769.06
2023-03-30T08:57:52.526Z,51401.19
2023-03-30T09:00:08.805Z,57321.81
2023-03-30T09:02:23.398Z,55692.56
2023-03-30T09:04:31.557Z,51725.16
2023-03-30T09:06:46.199Z,42519.44
2023-03-30T09:08:50.233Z,55671.47
2023-03-30T09:10:58.104Z,63248.00
2023-03-30T09:13:03.350Z,67526.06
2023-03-30T09:15:13.344Z,63573.50
2023-03-30T09:17:21.156Z,54996.03
2023-03-30T09:19:32.252Z,48748.13
2023-03-30T09:21:35.381Z,14069.97
2023-03-30T09:23:40.261Z,-23533.44
2023-03-30T09:25:51.108Z,-23533.44
2023-03-30T09:28:03.248Z,-23533.75
2023-03-30T09:30:18.243Z,-23533.91
2023-03-30T09:32:28.085Z,-23534.38
2023-03-30T09:34:39.391Z,-23535.97
2023-03-30T09:36:48.501Z,-23536.44
2023-03-30T09:38:52.074Z,-23535.66
2023-03-30T09:41:07.211Z,-23533.13
2023-03-30T09:43:17.421Z,-23532.81
2023-03-30T09:45:27.524Z,-23533.75
2023-03-30T09:47:35.493Z,-23535.03
2023-03-30T09:49:39.963Z,-23535.50
2023-03-30T09:51:56.023Z,-23537.56
2023-03-30T09:54:01.672Z,-23539.16
2023-03-30T09:56:11.313Z,-23542.00
2023-03-30T09:58:18.628Z,-23543.25
2023-03-30T10:00:29.204Z,-23542.31
2023-03-30T10:02:33.937Z,-23544.53
2023-03-30T10:05:00.287Z,-23539.00
2023-03-30T10:07:18.110Z,-23541.03
2023-03-30T10:09:24.722Z,-23542.47
2023-03-30T10:11:37.315Z,-23544.06
2023-03-30T10:13:43.329Z,-23546.09
2023-03-30T10:15:52.941Z,-23550.53
2023-03-30T10:17:56.495Z,-23551.47
2023-03-30T10:20:24.353Z,-23552.91
2023-03-30T10:22:27.155Z,-23555.28
2023-03-30T10:24:31.972Z,-23562.41
2023-03-30T10:26:37.287Z,-23562.88
2023-03-30T10:28:41.179Z,-23561.78
2023-03-30T10:30:53.661Z,-23566.19
2023-03-30T10:32:58.117Z,-23568.41
2023-03-30T10:35:03.685Z,-23574.56
2023-03-30T10:37:12.375Z,-23563.97
2023-03-30T10:39:22.968Z,-23566.03
2023-03-30T10:41:25.808Z,-23567.94
2023-03-30T10:43:32.269Z,-23563.81
2023-03-30T10:45:38.854Z,-23566.03
2023-03-30T10:48:00.451Z,-23566.97
2023-03-30T10:50:13.381Z,-23564.78
2023-03-30T10:52:24.165Z,-23562.09
2023-03-30T10:54:34.608Z,-23563.19
2023-03-30T10:56:43.750Z,-23565.09
2023-03-30T10:59:00.908Z,-23569.84
2023-03-30T11:01:14.130Z,-23574.88
2023-03-30T11:03:24.044Z,-23580.75
2023-03-30T11:05:33.009Z,-23578.69
2023-03-30T11:07:42.078Z,-23578.53
2023-03-30T11:09:52.024Z,-23571.72
2023-03-30T11:11:59.421Z,-23570.47
2023-03-30T11:14:05.124Z,-23568.56
2023-03-30T11:16:13.720Z,-23566.97
2023-03-30T11:18:22.316Z,-23566.50
2023-03-30T11:20:28.451Z,-23566.81
2023-03-30T11:22:37.674Z,-23565.25
2023-03-30T11:24:43.042Z,-23565.25
2023-03-30T11:26:50.814Z,-23566.97
2023-03-30T11:29:20.051Z,-23565.72
2023-03-30T11:31:36.322Z,-23571.56
2023-03-30T11:33:46.846Z,-23582.47
2023-03-30T11:35:54.616Z,-23584.53
2023-03-30T11:38:02.361Z,-23584.38
2023-03-30T11:40:17.109Z,-23586.28
2023-03-30T11:42:25.279Z,-23594.16
2023-03-30T11:44:28.510Z,-23591.81
2023-03-30T11:46:40.066Z,-23591.00
2023-03-30T11:49:06.265Z,-23590.38
2023-03-30T11:51:23.191Z,-23586.59
2023-03-30T11:53:33.798Z,-23590.69
2023-03-30T11:55:46.002Z,-23588.16
2023-03-30T11:57:55.410Z,-23585.66
2023-03-30T12:00:10.570Z,-23591.66
2023-03-30T12:02:24.600Z,-23590.38
2023-03-30T12:04:38.660Z,-23592.91
2023-03-30T12:06:42.911Z,-23596.06
2023-03-30T12:08:59.131Z,-23592.59
2023-03-30T12:11:07.296Z,-23591.19
2023-03-30T12:13:13.813Z,-23596.69
2023-03-30T12:15:27.190Z,-23601.44
2023-03-30T12:17:46.545Z,-23606.97
2023-03-30T12:19:57.203Z,-23601.75
2023-03-30T12:22:05.488Z,-23600.34
2023-03-30T12:24:18.329Z,-23593.53
2023-03-30T12:26:26.886Z,-23594.16
2023-03-30T12:29:11.274Z,-23597.00
2023-03-30T12:31:08.684Z,-23603.66
2023-03-30T12:33:19.278Z,-23598.28
2023-03-30T12:35:56.005Z,-23608.06
2023-03-30T12:37:58.983Z,-23614.72
2023-03-30T12:40:07.147Z,-23614.06
2023-03-30T12:42:26.137Z,-23607.44
2023-03-30T12:44:38.950Z,-23605.72
2023-03-30T12:46:50.015Z,-23611.88
2023-03-30T12:49:05.033Z,-23624.19
2023-03-30T12:51:17.906Z,-23635.22
2023-03-30T12:53:40.597Z,-23634.59
2023-03-30T12:55:47.294Z,-23643.75
2023-03-30T12:58:07.518Z,-23648.00
2023-03-30T13:00:31.665Z,-23634.44
2023-03-30T13:02:51.729Z,-23640.91
2023-03-30T13:04:55.156Z,-23634.91
2023-03-30T13:07:02.235Z,-23634.91
2023-03-30T13:09:33.382Z,-23623.88
2023-03-30T13:11:45.731Z,-23622.28
2023-03-30T13:14:00.607Z,-23640.28
2023-03-30T13:16:03.417Z,-23641.53
2023-03-30T13:18:26.287Z,-23649.75
2023-03-30T13:20:31.781Z,-23664.88
2023-03-30T13:22:36.906Z,-23673.72
2023-03-30T13:24:44.420Z,-23665.19
2023-03-30T13:26:47.069Z,-23673.41
2023-03-30T13:29:05.221Z,-23669.63
2023-03-30T13:31:22.165Z,-23663.94
2023-03-30T13:33:25.812Z,-23648.31
2023-03-30T13:35:35.773Z,-23653.69
2023-03-30T13:37:57.794Z,-23652.75
2023-03-30T13:40:08.829Z,-23651.63
2023-03-30T13:42:28.261Z,-23639.00
2023-03-30T13:44:57.274Z,-23650.06
2023-03-30T13:47:07.297Z,-23649.25
2023-03-30T13:49:40.022Z,-23649.75
2023-03-30T13:51:43.446Z,-23635.53
2023-03-30T13:53:51.341Z,-23634.91
2023-03-30T13:55:54.138Z,-23648.47
2023-03-30T13:58:03.047Z,-23645.66
2023-03-30T14:00:10.477Z,-23657.31
2023-03-30T14:02:17.229Z,-23669.28
2023-03-30T14:04:20.378Z,-23658.41
2023-03-30T14:06:26.389Z,-23668.03
2023-03-30T14:08:30.157Z,-23671.03
2023-03-30T14:10:34.678Z,-23686.63
2023-03-30T14:12:40.698Z,-23681.59
2023-03-30T14:14:47.373Z,-23685.06
2023-03-30T14:16:51.258Z,-23680.78
2023-03-30T14:18:54.912Z,-23670.09
2023-03-30T14:21:00.265Z,-23663.94
2023-03-30T14:23:04.730Z,-23673.72
2023-03-30T14:25:24.080Z,-23653.84
2023-03-30T14:27:34.055Z,-23655.09
2023-03-30T14:29:45.238Z,-23654.16
2023-03-30T14:32:06.622Z,-23660.63
2023-03-30T14:34:26.305Z,-23658.56
2023-03-30T14:36:29.274Z,-23660.16
2023-03-30T14:38:37.789Z,-23654.63
2023-03-30T14:40:41.400Z,-23655.41
2023-03-30T14:42:46.986Z,-23652.59
2023-03-30T14:44:52.926Z,-23651.31
2023-03-30T14:46:57.003Z,-23648.78
2023-03-30T14:48:59.799Z,-23648.16
2023-03-30T14:51:03.580Z,-23660.94
2023-03-30T14:53:07.273Z,-23665.81
2023-03-30T14:55:17.555Z,-23681.91
2023-03-30T14:57:23.261Z,-23664.72
2023-03-30T14:59:28.570Z,-23661.09
2023-03-30T15:01:32.605Z,-23663.47
2023-03-30T15:03:38.403Z,-23656.38
2023-03-30T15:05:42.845Z,-23654.00
2023-03-30T15:07:49.299Z,-23647.69
2023-03-30T15:09:56.179Z,-23639.97
2023-03-30T15:12:02.312Z,-23647.84
2023-03-30T15:14:09.598Z,-23643.75
2023-03-30T15:16:19.295Z,-23645.16
2023-03-30T15:18:27.024Z,-23646.13
2023-03-30T15:20:31.618Z,-23644.06
2023-03-30T15:22:37.218Z,-23641.53
2023-03-30T15:24:41.709Z,-23642.97
2023-03-30T15:26:48.737Z,-23647.06
2023-03-30T15:28:54.558Z,-23650.06
2023-03-30T15:30:57.309Z,-23656.69
2023-03-30T15:33:02.264Z,-23648.78
2023-03-30T15:35:18.132Z,-23644.38
2023-03-30T15:37:23.359Z,-23644.06
2023-03-30T15:39:33.491Z,-23642.66
2023-03-30T15:41:47.345Z,-23647.84
2023-03-30T15:43:56.067Z,-23651.47
2023-03-30T15:46:03.246Z,-23663.31
2023-03-30T15:48:10.942Z,-23661.25
2023-03-30T15:50:15.424Z,-23655.59
2023-03-30T15:52:22.690Z,-23656.69
2023-03-30T15:54:31.218Z,-23650.38
2023-03-30T15:56:38.166Z,-23658.41
2023-03-30T15:58:41.487Z,-23658.75
2023-03-30T16:00:45.352Z,-23645.66
2023-03-30T16:02:50.527Z,-23638.38
2023-03-30T16:04:55.058Z,-23637.75
2023-03-30T16:06:57.701Z,-23632.22
2023-03-30T16:09:00.310Z,-23634.91
2023-03-30T16:11:04.054Z,-23636.19
2023-03-30T16:13:07.021Z,-23628.91
2023-03-30T16:15:14.392Z,-23624.19
2023-03-30T16:17:17.216Z,-23631.44
2023-03-30T16:19:21.028Z,-23622.28
2023-03-30T16:21:25.292Z,-23625.59
2023-03-30T16:23:27.890Z,-23624.50
2023-03-30T16:25:44.208Z,-23622.59
2023-03-30T16:27:48.311Z,-23624.81
2023-03-30T16:29:50.968Z,-23616.91
2023-03-30T16:31:54.974Z,-23609.03
2023-03-30T16:33:57.661Z,-23608.38
2023-03-30T16:36:00.455Z,-23608.69
2023-03-30T16:38:05.486Z,-23603.81
2023-03-30T16:40:18.394Z,-23602.22
2023-03-30T16:42:21.637Z,-23597.50
2023-03-30T16:44:25.861Z,-23598.59
2023-03-30T16:46:28.598Z,-23597.34
2023-03-30T16:48:31.254Z,-23596.53
2023-03-30T16:50:38.332Z,-23597.97
2023-03-30T16:52:41.200Z,-23601.44
2023-03-30T16:54:45.223Z,-23599.38
2023-03-30T16:56:47.977Z,-23591.97
2023-03-30T16:58:50.645Z,-23591.00
2023-03-30T17:00:56.252Z,-23591.34
2023-03-30T17:02:59.045Z,-23589.13
2023-03-30T17:05:01.789Z,-23586.91
2023-03-30T17:07:05.726Z,-23585.97
2023-03-30T17:09:13.134Z,-23584.38
2023-03-30T17:11:18.233Z,-23580.75
2023-03-30T17:13:21.143Z,-23579.63
2023-03-30T17:15:24.930Z,-23580.91
2023-03-30T17:17:27.576Z,-23581.53
2023-03-30T17:19:30.203Z,-23580.91
2023-03-30T17:21:32.966Z,-23580.09
2023-03-30T17:23:35.723Z,-23580.91
2023-03-30T17:25:39.885Z,-23579.94
2023-03-30T17:27:44.352Z,-23580.91
2023-03-30T17:29:47.225Z,-23579.94
2023-03-30T17:31:49.911Z,-23579.63
2023-03-30T17:33:52.562Z,-23579.63
2023-03-30T17:35:57.612Z,-23579.16
2023-03-30T17:38:00.310Z,-23579.47
2023-03-30T17:40:03.058Z,-23576.94
2023-03-30T17:42:05.941Z,-23575.69
2023-03-30T17:44:09.959Z,-23575.38
2023-03-30T17:46:13.769Z,-23573.78
2023-03-30T17:48:18.684Z,-23574.25
2023-03-30T17:50:24.556Z,-23569.50
2023-03-30T17:52:30.179Z,-23569.66
2023-03-30T17:54:33.263Z,-23566.66
2023-03-30T17:56:35.852Z,-23564.13
2023-03-30T17:58:38.529Z,-23561.59
2023-03-30T18:00:42.746Z,-23558.75
2023-03-30T18:02:45.665Z,-23554.97
2023-03-30T18:04:48.301Z,-23555.75
2023-03-30T18:06:51.006Z,-23554.19
2023-03-30T18:08:53.627Z,-23552.13
2023-03-30T18:10:57.965Z,-23552.75
2023-03-30T18:13:00.591Z,-23552.13
2023-03-30T18:15:03.185Z,-23550.53
2023-03-30T18:17:07.453Z,-23551.47
2023-03-30T18:19:11.534Z,-23549.91
2023-03-30T18:21:14.162Z,-23548.63
2023-03-30T18:23:17.058Z,-23548.31
2023-03-30T18:25:31.399Z,-23548.00
2023-03-30T18:27:35.236Z,-23545.78
2023-03-30T18:29:37.950Z,-23546.44
2023-03-30T18:31:40.618Z,-23545.78
2023-03-30T18:33:44.624Z,-23543.88
2023-03-30T18:35:49.257Z,-23541.84
2023-03-30T18:37:53.856Z,-23539.16
2023-03-30T18:39:56.573Z,-23542.94
2023-03-30T18:41:59.188Z,-23538.50
2023-03-30T18:44:01.790Z,-23538.34
2023-03-30T18:46:04.748Z,-23537.25
2023-03-30T18:48:09.261Z,-23535.03
2023-03-30T18:50:16.631Z,-23534.56
2023-03-30T18:52:19.399Z,-23535.03
2023-03-30T18:54:22.004Z,-23535.19
2023-03-30T18:56:24.689Z,-23533.13
2023-03-30T18:58:29.033Z,-23534.38
2023-03-30T19:00:34.425Z,-23532.66
2023-03-30T19:02:37.135Z,-23530.28
2023-03-30T19:04:39.836Z,-23528.38
2023-03-30T19:06:46.169Z,-23528.06
2023-03-30T19:08:48.845Z,-23526.16
2023-03-30T19:10:53.112Z,-23523.94
2023-03-30T19:12:56.586Z,-23521.09
2023-03-30T19:14:59.212Z,-23521.41
2023-03-30T19:17:01.876Z,-23521.09
2023-03-30T19:19:04.648Z,-23521.56
2023-03-30T19:21:07.386Z,-23522.03
2023-03-30T19:23:13.890Z,-23523.31
2023-03-30T19:25:17.578Z,-23524.25
2023-03-30T19:27:20.397Z,-23522.19
2023-03-30T19:29:23.095Z,-23522.03
2023-03-30T19:31:25.785Z,-23520.16
2023-03-30T19:33:28.422Z,-23520.00
2023-03-30T19:35:31.314Z,-23519.50
2023-03-30T19:37:34.261Z,-23518.25
2023-03-30T19:39:38.197Z,-23518.88
2023-03-30T19:41:40.844Z,-23516.19
2023-03-30T19:43:43.499Z,-23514.75
2023-03-30T19:45:51.264Z,-23512.53
2023-03-30T19:47:53.952Z,-23512.84
2023-03-30T19:49:56.704Z,-23512.53
2023-03-30T19:51:59.483Z,-23510.97
2023-03-30T19:54:02.085Z,-23511.28
2023-03-30T19:56:10.250Z,-23510.16
2023-03-30T19:58:13.456Z,-23509.22
2023-03-30T20:00:18.503Z,-23510.00
2023-03-30T20:02:21.584Z,-23509.38
2023-03-30T20:04:24.380Z,-23509.06
2023-03-30T20:06:27.173Z,-23509.53
2023-03-30T20:08:29.852Z,-23508.09
2023-03-30T20:10:32.465Z,-23506.53
2023-03-30T20:12:37.076Z,-23504.94
2023-03-30T20:14:39.957Z,-23504.78
2023-03-30T20:16:42.955Z,-23503.69
2023-03-30T20:18:47.280Z,-23502.25
2023-03-30T20:20:49.928Z,-23502.09
2023-03-30T20:22:56.211Z,-23502.72
2023-03-30T20:24:59.055Z,-23501.78
2023-03-30T20:27:01.706Z,-23501.94
2023-03-30T20:29:05.721Z,-23501.13
2023-03-30T20:31:08.443Z,-23500.19
2023-03-30T20:33:11.165Z,-23498.28
2023-03-30T20:35:13.860Z,-23498.59
2023-03-30T20:37:16.562Z,-23499.88
2023-03-30T20:39:22.152Z,-23499.06
2023-03-30T20:41:24.820Z,-23499.88
2023-03-30T20:43:27.396Z,-23499.72
2023-03-30T20:45:32.105Z,-23502.09
2023-03-30T20:47:34.910Z,-23500.19
2023-03-30T20:49:41.908Z,-23500.97
2023-03-30T20:51:45.891Z,-23499.25
2023-03-30T20:53:49.221Z,-23500.81
2023-03-30T20:55:52.193Z,-23499.41
2023-03-30T20:57:54.795Z,-23496.88
2023-03-30T20:59:57.426Z,-23497.34
2023-03-30T21:02:01.373Z,-23497.50
2023-03-30T21:04:04.111Z,-23498.44
2023-03-30T21:06:07.525Z,-23495.91
2023-03-30T21:08:10.606Z,-23495.75
2023-03-30T21:10:13.300Z,-23495.13
2023-03-30T21:12:16.019Z,-23494.81
2023-03-30T21:14:18.851Z,-23493.38
2023-03-30T21:16:21.476Z,-23494.81
2023-03-30T21:18:25.634Z,-23494.50
2023-03-30T21:20:28.297Z,-23495.28
2023-03-30T21:22:30.967Z,-23497.97
2023-03-30T21:24:34.248Z,-23497.66
2023-03-30T21:26:36.940Z,-23497.81
2023-03-30T21:28:41.315Z,-23497.03
2023-03-30T21:30:43.958Z,-23495.91
2023-03-30T21:32:46.719Z,-23498.28
2023-03-30T21:34:50.732Z,-23497.19
2023-03-30T21:36:53.483Z,-23497.66
2023-03-30T21:38:58.581Z,-23498.13
2023-03-30T21:41:02.885Z,-23497.66
2023-03-30T21:43:05.538Z,-23497.50
2023-03-30T21:45:11.611Z,-23497.03
2023-03-30T21:47:16.484Z,-23497.34
2023-03-30T21:49:19.080Z,-23498.59
2023-03-30T21:51:24.739Z,-23499.56
2023-03-30T21:53:27.564Z,-23500.19
2023-03-30T21:55:30.249Z,-23500.81
2023-03-30T21:57:32.942Z,-23501.13
2023-03-30T21:59:35.599Z,-23502.09
2023-03-30T22:01:38.698Z,-23500.50
2023-03-30T22:03:42.544Z,-23502.72
2023-03-30T22:05:45.906Z,-23503.03
2023-03-30T22:07:49.904Z,-23503.34
2023-03-30T22:09:52.578Z,-23504.16
2023-03-30T22:11:55.527Z,-23506.22
2023-03-30T22:13:58.146Z,-23507.31
2023-03-30T22:16:03.115Z,-23509.38
2023-03-30T22:18:06.760Z,-23512.84
2023-03-30T22:20:11.310Z,-23513.50
2023-03-30T22:22:13.994Z,-23514.13
2023-03-30T22:24:19.276Z,-23517.94
2023-03-30T22:26:22.303Z,-23516.97
2023-03-30T22:28:25.308Z,-23518.25
2023-03-30T22:30:27.985Z,-23519.50
2023-03-30T22:32:33.005Z,-23518.88
2023-03-30T22:34:36.811Z,-23517.63
2023-03-30T22:36:40.802Z,-23516.81
2023-03-30T22:38:43.638Z,-23513.81
2023-03-30T22:40:47.599Z,-23511.13
2023-03-30T22:42:50.724Z,-23507.63
2023-03-30T22:44:53.360Z,-23507.94
2023-03-30T22:46:56.174Z,-23507.16
2023-03-30T22:49:00.207Z,-23506.22
2023-03-30T22:51:06.872Z,-23504.00
2023-03-30T22:53:09.356Z,-23505.56
2023-03-30T22:55:12.005Z,-23506.84
2023-03-30T22:57:16.063Z,-23505.41
2023-03-30T22:59:18.676Z,-23507.31
2023-03-30T23:01:21.510Z,-23509.38
2023-03-30T23:03:24.319Z,-23510.97
2023-03-30T23:05:26.993Z,-23512.84
2023-03-30T23:07:31.182Z,-23512.53
2023-03-30T23:09:34.425Z,-23514.28
2023-03-30T23:11:37.036Z,-23517.28
2023-03-30T23:13:42.235Z,-23520.78
2023-03-30T23:15:45.026Z,-23522.38
2023-03-30T23:17:47.794Z,-23524.72
2023-03-30T23:19:53.900Z,-23523.63
2023-03-30T23:21:56.905Z,-23523.94
2023-03-30T23:23:59.585Z,-23523.31
2023-03-30T23:26:02.897Z,-23522.84
2023-03-30T23:28:06.362Z,-23525.22
2023-03-30T23:30:11.634Z,-23524.41
2023-03-30T23:32:14.262Z,-23523.47
2023-03-30T23:34:17.501Z,-23524.56
2023-03-30T23:36:20.153Z,-23525.22
2023-03-30T23:38:23.706Z,-23527.44
2023-03-30T23:40:26.449Z,-23528.06
2023-03-30T23:42:29.566Z,-23526.78
2023-03-30T23:44:32.253Z,-23529.00
2023-03-30T23:46:36.245Z,-23529.00
2023-03-30T23:48:39.273Z,-23527.13
2023-03-30T23:50:42.212Z,-23526.47
2023-03-30T23:52:44.848Z,-23523.63
2023-03-30T23:54:52.121Z,-23523.78
2023-03-30T23:56:57.522Z,-23524.72
2023-03-30T23:59:00.493Z,-23524.91
